createdAt,value
2018-12-24T00:00:54.480Z,30.60
2018-12-24T00:03:09.378Z,23.40
2018-12-24T00:05:24.556Z,31.20
2018-12-24T00:07:38.956Z,29.90
2018-12-24T00:09:54.312Z,30.17
2018-12-24T00:12:09.652Z,26.67
2018-12-24T00:14:25.200Z,31.40
2018-12-24T00:16:40.473Z,30.57
2018-12-24T00:18:55.664Z,27.40
2018-12-24T00:21:10.917Z,23.70
2018-12-24T00:23:26.169Z,25.47
2018-12-24T00:25:41.455Z,24.63
2018-12-24T00:27:56.892Z,25.73
2018-12-24T00:30:11.905Z,28.20
2018-12-24T00:32:27.245Z,23.37
2018-12-24T00:34:42.541Z,24.60
2018-12-24T00:36:57.972Z,35.93
2018-12-24T00:39:12.601Z,27.63
2018-12-24T00:41:28.208Z,25.27
2018-12-24T00:43:43.085Z,28.60
2018-12-24T00:45:57.981Z,28.60
2018-12-24T00:48:13.276Z,28.80
2018-12-24T00:50:28.457Z,26.33
2018-12-24T00:52:43.556Z,27.13
2018-12-24T00:54:58.732Z,31.20
2018-12-24T00:57:14.061Z,27.77
2018-12-24T00:59:29.433Z,28.13
2018-12-24T01:01:44.940Z,26.00
2018-12-24T01:03:59.945Z,34.90
2018-12-24T01:06:15.205Z,33.00
2018-12-24T01:08:30.840Z,34.50
2018-12-24T01:10:45.833Z,33.20
2018-12-24T01:13:00.516Z,45.10
2018-12-24T01:15:15.757Z,30.17
2018-12-24T01:17:31.101Z,36.10
2018-12-24T01:19:46.718Z,30.67
2018-12-24T01:22:01.649Z,32.00
2018-12-24T01:24:17.064Z,37.27
2018-12-24T01:26:32.400Z,31.67
2018-12-24T01:34:08.265Z,36.83
2018-12-24T01:36:22.793Z,38.23
2018-12-24T01:38:37.928Z,36.40
2018-12-24T01:40:52.345Z,32.77
2018-12-24T01:43:07.507Z,30.70
2018-12-24T01:45:22.904Z,34.93
2018-12-24T01:50:18.632Z,27.23
2018-12-24T01:52:33.937Z,24.47
2018-12-24T01:54:48.345Z,25.87
2018-12-24T01:57:02.739Z,22.60
2018-12-24T01:59:17.349Z,21.37
2018-12-24T02:01:32.640Z,22.73
2018-12-24T02:03:47.853Z,20.37
2018-12-24T02:06:03.240Z,22.70
2018-12-24T02:08:17.796Z,20.87
2018-12-24T02:10:33.064Z,24.50
2018-12-24T02:12:48.488Z,23.67
2018-12-24T02:15:03.424Z,25.87
2018-12-24T02:17:18.728Z,28.17
2018-12-24T02:19:34.054Z,29.27
2018-12-24T02:21:48.493Z,28.73
2018-12-24T02:24:03.833Z,31.30
2018-12-24T02:26:19.349Z,33.80
2018-12-24T02:28:34.424Z,36.83
2018-12-24T02:30:49.889Z,31.00
2018-12-24T02:38:22.788Z,28.47
2018-12-24T02:40:37.176Z,23.83
2018-12-24T02:42:52.529Z,28.33
2018-12-24T02:45:07.276Z,30.13
2018-12-24T02:47:22.454Z,48.97
2018-12-24T02:49:37.581Z,30.37
2018-12-24T02:51:52.849Z,25.90
2018-12-24T02:54:07.929Z,28.70
2018-12-24T02:56:23.005Z,29.50
2018-12-24T02:58:37.390Z,33.03
2018-12-24T03:00:51.829Z,26.80
2018-12-24T03:03:06.427Z,27.63
2018-12-24T03:05:21.548Z,28.53
2018-12-24T03:07:35.996Z,22.70
2018-12-24T03:09:51.277Z,29.07
2018-12-24T03:12:05.814Z,31.20
2018-12-24T03:14:20.332Z,29.80
2018-12-24T03:16:35.582Z,26.10
2018-12-24T03:18:50.688Z,24.90
2018-12-24T03:21:05.694Z,26.10
2018-12-24T03:23:20.986Z,23.07
2018-12-24T03:25:36.254Z,25.43
2018-12-24T03:27:51.043Z,27.87
2018-12-24T03:30:06.119Z,26.90
2018-12-24T03:32:21.185Z,31.07
2018-12-24T03:34:36.559Z,23.57
2018-12-24T03:36:51.713Z,27.93
2018-12-24T03:39:07.041Z,24.33
2018-12-24T03:41:22.609Z,28.63
2018-12-24T03:43:37.598Z,35.03
2018-12-24T03:45:53.108Z,26.73
2018-12-24T03:48:08.426Z,26.73
2018-12-24T03:50:23.825Z,22.30
2018-12-24T03:52:38.249Z,27.13
2018-12-24T03:54:52.956Z,25.20
2018-12-24T03:57:08.056Z,23.10
2018-12-24T03:59:23.366Z,23.57
2018-12-24T04:01:38.957Z,22.70
2018-12-24T04:03:53.996Z,22.03
2018-12-24T04:06:08.384Z,24.03
2018-12-24T04:08:23.788Z,21.40
2018-12-24T04:10:38.569Z,22.80
2018-12-24T04:12:53.928Z,21.37
2018-12-24T04:15:09.422Z,19.87
2018-12-24T04:17:23.960Z,19.43
2018-12-24T04:19:38.348Z,24.17
2018-12-24T04:21:53.859Z,20.40
2018-12-24T04:24:08.841Z,18.07
2018-12-24T04:26:23.285Z,21.93
2018-12-24T04:28:37.912Z,18.60
2018-12-24T04:30:53.179Z,18.23
2018-12-24T04:33:08.397Z,18.53
2018-12-24T04:35:22.896Z,22.37
2018-12-24T04:37:37.221Z,20.37
2018-12-24T04:39:51.617Z,19.23
2018-12-24T04:42:07.087Z,19.03
2018-12-24T04:44:22.045Z,16.37
2018-12-24T04:46:37.312Z,20.30
2018-12-24T04:48:52.433Z,19.23
2018-12-24T04:51:07.615Z,17.37
2018-12-24T04:53:22.008Z,17.10
2018-12-24T04:55:37.217Z,16.20
2018-12-24T04:57:52.569Z,16.40
2018-12-24T05:00:07.885Z,18.47
2018-12-24T05:02:23.109Z,16.60
2018-12-24T05:04:38.192Z,14.23
2018-12-24T05:06:53.336Z,19.43
2018-12-24T05:09:08.660Z,14.73
2018-12-24T05:11:23.873Z,12.10
2018-12-24T05:13:40.986Z,12.60
2018-12-24T05:15:55.348Z,13.40
2018-12-24T05:18:10.609Z,15.20
2018-12-24T05:20:25.745Z,12.83
2018-12-24T05:22:40.966Z,14.50
2018-12-24T05:24:56.272Z,13.70
2018-12-24T05:27:11.305Z,16.57
2018-12-24T05:29:25.790Z,16.40
2018-12-24T05:31:40.877Z,17.47
2018-12-24T05:33:56.073Z,17.13
2018-12-24T05:36:11.285Z,17.13
2018-12-24T05:38:26.532Z,17.20
2018-12-24T05:40:41.844Z,20.17
2018-12-24T05:42:56.904Z,19.50
2018-12-24T05:45:12.101Z,18.93
2018-12-24T05:47:27.452Z,19.10
2018-12-24T05:49:42.836Z,17.53
2018-12-24T05:51:58.000Z,15.50
2018-12-24T05:54:13.461Z,13.17
2018-12-24T05:56:28.732Z,13.77
2018-12-24T05:58:43.152Z,13.87
2018-12-24T06:00:57.808Z,12.60
2018-12-24T06:03:13.093Z,14.00
2018-12-24T06:05:28.313Z,11.10
2018-12-24T06:07:43.868Z,14.80
2018-12-24T06:09:59.137Z,10.43
2018-12-24T06:12:14.144Z,10.60
2018-12-24T06:14:29.473Z,10.80
2018-12-24T06:16:44.961Z,17.50
2018-12-24T06:19:00.233Z,8.40
2018-12-24T06:21:15.532Z,9.00
2018-12-24T06:23:30.953Z,9.10
2018-12-24T06:25:46.028Z,10.20
2018-12-24T06:28:00.573Z,11.70
2018-12-24T06:30:14.925Z,9.90
2018-12-24T06:32:30.526Z,8.70
2018-12-24T06:34:45.813Z,13.07
2018-12-24T06:37:00.797Z,8.87
2018-12-24T06:39:15.936Z,9.47
2018-12-24T06:41:31.188Z,9.90
2018-12-24T06:43:45.628Z,12.70
2018-12-24T06:46:00.521Z,10.63
2018-12-24T06:48:15.662Z,11.90
2018-12-24T06:50:30.921Z,14.20
2018-12-24T06:52:46.433Z,10.17
2018-12-24T06:55:01.741Z,9.70
2018-12-24T06:57:16.641Z,9.17
2018-12-24T06:59:31.361Z,10.20
2018-12-24T07:01:46.534Z,10.17
2018-12-24T07:04:01.984Z,10.93
2018-12-24T07:06:17.325Z,12.93
2018-12-24T07:08:31.904Z,10.67
2018-12-24T07:16:08.399Z,11.17
2018-12-24T07:18:22.865Z,11.07
2018-12-24T07:20:37.293Z,8.47
2018-12-24T07:22:52.065Z,11.47
2018-12-24T07:25:06.909Z,10.27
2018-12-24T07:27:22.298Z,11.80
2018-12-24T07:29:37.590Z,11.43
2018-12-24T07:31:52.116Z,9.27
2018-12-24T07:34:06.520Z,9.77
2018-12-24T07:36:22.085Z,8.50
2018-12-24T07:38:37.489Z,13.93
2018-12-24T07:40:52.680Z,10.90
2018-12-24T07:43:07.996Z,10.70
2018-12-24T07:45:23.284Z,12.60
2018-12-24T07:47:38.852Z,12.53
2018-12-24T07:49:53.788Z,12.13
2018-12-24T07:54:49.445Z,10.93
2018-12-24T07:57:04.850Z,14.23
2018-12-24T07:59:20.417Z,25.33
2018-12-24T08:01:35.653Z,12.27
2018-12-24T08:03:50.624Z,8.70
2018-12-24T08:06:05.968Z,8.87
2018-12-24T08:08:21.397Z,7.00
2018-12-24T08:10:36.481Z,5.77
2018-12-24T08:12:52.093Z,7.27
2018-12-24T08:15:07.381Z,8.00
2018-12-24T08:17:22.304Z,8.20
2018-12-24T08:19:37.444Z,5.97
2018-12-24T08:21:52.549Z,6.17
2018-12-24T08:24:07.121Z,5.30
2018-12-24T08:26:22.227Z,5.53
2018-12-24T08:28:36.788Z,7.60
2018-12-24T08:30:51.984Z,5.87
2018-12-24T08:33:07.613Z,7.30
2018-12-24T08:35:22.848Z,6.70
2018-12-24T08:37:38.088Z,5.97
2018-12-24T08:39:53.309Z,6.23
2018-12-24T08:42:08.881Z,10.83
2018-12-24T08:44:23.852Z,6.83
2018-12-24T08:46:39.080Z,6.17
2018-12-24T08:48:54.336Z,6.50
2018-12-24T08:51:09.609Z,6.33
2018-12-24T08:53:24.940Z,7.77
2018-12-24T08:55:39.985Z,9.00
2018-12-24T08:57:55.076Z,7.90
2018-12-24T09:00:09.614Z,7.87
2018-12-24T09:02:24.126Z,9.93
2018-12-24T09:04:38.565Z,9.50
2018-12-24T09:06:52.996Z,6.60
2018-12-24T09:09:07.297Z,8.00
2018-12-24T09:11:22.600Z,7.83
2018-12-24T09:13:37.701Z,9.63
2018-12-24T09:15:52.056Z,7.03
2018-12-24T09:18:07.420Z,8.50
2018-12-24T09:20:21.833Z,8.77
2018-12-24T09:22:36.417Z,8.63
2018-12-24T09:24:51.693Z,5.60
2018-12-24T09:27:07.280Z,7.07
2018-12-24T09:29:22.408Z,7.10
2018-12-24T09:31:37.804Z,8.23
2018-12-24T09:33:52.808Z,8.80
2018-12-24T09:36:08.092Z,9.47
2018-12-24T09:38:23.220Z,8.50
2018-12-24T09:40:38.248Z,9.73
2018-12-24T09:42:53.813Z,8.73
2018-12-24T09:45:08.972Z,8.77
2018-12-24T09:47:24.229Z,7.77
2018-12-24T09:49:39.488Z,9.97
2018-12-24T09:51:53.929Z,7.50
2018-12-24T09:54:08.662Z,8.13
2018-12-24T09:56:23.098Z,8.80
2018-12-24T09:58:38.433Z,9.00
2018-12-24T10:00:53.981Z,6.30
2018-12-24T10:03:08.932Z,5.10
2018-12-24T10:05:23.362Z,6.37
2018-12-24T10:07:40.378Z,6.03
2018-12-24T10:09:55.294Z,6.77
2018-12-24T10:12:10.328Z,6.57
2018-12-24T10:14:24.647Z,4.50
2018-12-24T10:16:39.054Z,4.90
2018-12-24T10:18:54.333Z,7.57
2018-12-24T10:21:08.665Z,4.90
2018-12-24T10:23:23.821Z,7.10
2018-12-24T10:25:39.105Z,8.63
2018-12-24T10:27:54.264Z,6.50
2018-12-24T10:30:09.589Z,4.57
2018-12-24T10:32:24.579Z,7.23
2018-12-24T10:34:39.696Z,7.57
2018-12-24T10:36:54.112Z,6.87
2018-12-24T10:39:09.440Z,7.23
2018-12-24T10:41:24.681Z,8.03
2018-12-24T10:43:39.960Z,6.30
2018-12-24T10:45:55.221Z,7.93
2018-12-24T10:48:10.525Z,5.53
2018-12-24T10:50:25.604Z,6.07
2018-12-24T10:52:41.164Z,5.23
2018-12-24T10:54:56.253Z,6.70
2018-12-24T10:57:11.505Z,5.20
2018-12-24T10:59:26.609Z,5.20
2018-12-24T11:01:40.984Z,4.80
2018-12-24T11:03:56.093Z,4.80
2018-12-24T11:08:57.980Z,4.90
2018-12-24T11:11:13.180Z,4.00
2018-12-24T11:13:28.733Z,5.10
2018-12-24T11:15:43.729Z,5.00
2018-12-24T11:17:59.041Z,4.20
2018-12-24T11:20:15.144Z,4.63
2018-12-24T11:27:57.849Z,3.93
2018-12-24T11:30:13.006Z,3.80
2018-12-24T11:32:28.284Z,4.10
2018-12-24T11:34:43.287Z,4.33
2018-12-24T11:36:58.615Z,3.70
2018-12-24T11:39:13.728Z,3.60
2018-12-24T11:41:29.080Z,4.13
2018-12-24T11:43:43.740Z,4.20
2018-12-24T11:45:58.253Z,3.83
2018-12-24T11:48:13.611Z,4.13
2018-12-24T11:50:28.713Z,3.60
2018-12-24T11:52:44.046Z,8.00
2018-12-24T11:54:58.521Z,3.87
2018-12-24T11:57:13.588Z,4.50
2018-12-24T11:59:28.885Z,5.13
2018-12-24T12:01:44.251Z,4.03
2018-12-24T12:03:58.632Z,4.33
2018-12-24T12:06:19.662Z,4.43
2018-12-24T12:08:30.164Z,4.50
2018-12-24T12:10:45.257Z,4.17
2018-12-24T12:12:59.836Z,4.90
2018-12-24T12:15:14.436Z,4.47
2018-12-24T12:17:29.624Z,4.87
2018-12-24T12:19:44.072Z,6.00
2018-12-24T12:21:59.353Z,5.93
2018-12-24T12:24:14.405Z,4.10
2018-12-24T12:26:30.399Z,4.67
2018-12-24T12:28:44.928Z,4.63
2018-12-24T12:31:00.548Z,4.93
2018-12-24T12:33:15.792Z,5.03
2018-12-24T12:35:31.072Z,4.40
2018-12-24T12:37:33.165Z,4.33
2018-12-24T12:39:35.252Z,6.67
2018-12-24T12:41:37.336Z,4.20
2018-12-24T12:43:39.424Z,4.57
2018-12-24T12:45:41.520Z,4.70
2018-12-24T12:47:43.608Z,4.90
2018-12-24T12:49:45.709Z,4.80
2018-12-24T12:51:47.796Z,4.27
2018-12-24T12:53:49.875Z,4.83
2018-12-24T12:55:52.217Z,4.43
2018-12-24T12:57:54.296Z,5.10
2018-12-24T12:59:56.392Z,5.30
2018-12-24T13:01:58.479Z,5.53
2018-12-24T13:04:00.555Z,6.83
2018-12-24T13:06:02.652Z,4.87
2018-12-24T13:08:04.742Z,4.63
2018-12-24T13:10:07.081Z,5.10
2018-12-24T13:12:09.158Z,5.73
2018-12-24T13:14:11.232Z,5.43
2018-12-24T13:16:13.328Z,5.83
2018-12-24T13:18:15.412Z,5.13
2018-12-24T13:20:25.033Z,4.90
2018-12-24T13:22:22.348Z,6.47
2018-12-24T13:24:24.431Z,7.30
2018-12-24T13:26:26.528Z,6.63
2018-12-24T13:28:28.851Z,5.60
2018-12-24T13:30:30.944Z,5.60
2018-12-24T13:32:33.113Z,8.00
2018-12-24T13:34:35.224Z,7.40
2018-12-24T13:36:37.312Z,6.17
2018-12-24T13:38:39.391Z,8.00
2018-12-24T13:40:41.749Z,5.43
2018-12-24T13:42:43.854Z,5.33
2018-12-24T13:44:45.944Z,5.27
2018-12-24T13:46:48.275Z,6.63
2018-12-24T13:48:50.371Z,6.93
2018-12-24T13:50:52.481Z,6.47
2018-12-24T13:52:54.573Z,5.17
2018-12-24T13:54:57.428Z,6.10
2018-12-24T13:56:59.828Z,4.93
2018-12-24T13:59:02.197Z,7.90
2018-12-24T14:01:04.295Z,5.80
2018-12-24T14:03:06.388Z,5.80
2018-12-24T14:05:08.655Z,9.10
2018-12-24T14:07:10.784Z,4.90
2018-12-24T14:09:13.127Z,6.33
2018-12-24T14:11:15.475Z,5.40
2018-12-24T14:13:17.800Z,7.43
2018-12-24T14:15:19.884Z,5.10
2018-12-24T14:17:21.978Z,7.10
2018-12-24T14:19:24.064Z,10.23
2018-12-24T14:21:26.202Z,7.10
2018-12-24T14:23:28.521Z,6.50
2018-12-24T14:25:30.616Z,5.60
2018-12-24T14:27:32.713Z,6.03
2018-12-24T14:29:37.708Z,5.30
2018-12-24T14:31:39.803Z,6.43
2018-12-24T14:33:42.136Z,5.00
2018-12-24T14:35:44.229Z,6.37
2018-12-24T14:37:46.571Z,6.33
2018-12-24T14:40:34.884Z,7.80
2018-12-24T14:42:49.941Z,5.03
2018-12-24T14:45:04.829Z,6.00
2018-12-24T14:47:19.600Z,8.00
2018-12-24T14:49:34.621Z,6.30
2018-12-24T14:51:49.473Z,7.90
2018-12-24T14:54:04.376Z,5.87
2018-12-24T14:56:19.228Z,7.57
2018-12-24T14:58:34.033Z,6.33
2018-12-24T15:00:49.293Z,6.37
2018-12-24T15:03:03.964Z,8.50
2018-12-24T15:05:18.939Z,7.30
2018-12-24T15:07:33.985Z,7.50
2018-12-24T15:09:48.824Z,9.27
2018-12-24T15:12:03.637Z,6.60
2018-12-24T15:14:18.324Z,8.33
2018-12-24T15:16:34.831Z,6.97
2018-12-24T15:18:50.081Z,11.93
2018-12-24T15:21:04.790Z,7.07
2018-12-24T15:23:19.677Z,7.73
2018-12-24T15:25:34.512Z,7.37
2018-12-24T15:27:49.348Z,7.03
2018-12-24T15:30:04.182Z,5.83
2018-12-24T15:32:19.066Z,7.93
2018-12-24T15:34:34.029Z,9.03
2018-12-24T15:36:48.742Z,9.37
2018-12-24T15:39:04.328Z,7.93
2018-12-24T15:41:19.373Z,8.20
2018-12-24T15:43:34.404Z,9.60
2018-12-24T15:45:49.192Z,9.93
2018-12-24T15:48:03.905Z,7.40
2018-12-24T15:50:18.839Z,10.30
2018-12-24T15:52:33.845Z,8.53
2018-12-24T15:54:48.846Z,10.93
2018-12-24T15:57:04.011Z,8.10
2018-12-24T15:59:20.092Z,9.73
2018-12-24T16:01:35.583Z,9.07
2018-12-24T16:03:50.088Z,8.60
2018-12-24T16:06:04.816Z,13.20
2018-12-24T16:08:20.136Z,9.20
2018-12-24T16:10:34.708Z,10.90
2018-12-24T16:12:49.585Z,11.23
2018-12-24T16:15:04.497Z,11.70
2018-12-24T16:17:19.397Z,9.83
2018-12-24T16:19:34.089Z,10.50
2018-12-24T16:21:48.870Z,12.80
2018-12-24T16:24:03.671Z,12.67
2018-12-24T16:26:18.536Z,12.10
2018-12-24T16:28:33.381Z,12.10
2018-12-24T16:30:48.232Z,12.00
2018-12-24T16:33:02.281Z,11.60
2018-12-24T16:35:17.092Z,11.23
2018-12-24T16:37:31.960Z,12.77
2018-12-24T16:39:46.685Z,12.57
2018-12-24T16:42:01.526Z,11.20
2018-12-24T16:44:16.413Z,12.30
2018-12-24T16:46:31.485Z,13.60
2018-12-24T16:48:46.233Z,11.37
2018-12-24T16:51:01.058Z,11.80
2018-12-24T16:53:16.228Z,10.97
2018-12-24T16:55:30.973Z,11.83
2018-12-24T16:57:45.788Z,12.07
2018-12-24T17:00:00.818Z,12.43
2018-12-24T17:02:15.893Z,13.63
2018-12-24T17:04:30.768Z,15.03
2018-12-24T17:06:45.576Z,12.10
2018-12-24T17:09:00.416Z,14.03
2018-12-24T17:11:15.340Z,14.53
2018-12-24T17:13:30.185Z,12.07
2018-12-24T17:15:44.984Z,10.67
2018-12-24T17:17:59.588Z,15.37
2018-12-24T17:20:14.360Z,18.83
2018-12-24T17:22:29.096Z,15.23
2018-12-24T17:24:44.288Z,14.27
2018-12-24T17:26:59.175Z,32.43
2018-12-24T17:29:13.941Z,17.33
2018-12-24T17:31:28.793Z,16.20
2018-12-24T17:33:43.508Z,15.77
2018-12-24T17:35:58.322Z,12.23
2018-12-24T17:38:13.188Z,14.93
2018-12-24T17:40:28.086Z,14.67
2018-12-24T17:42:43.040Z,12.93
2018-12-24T17:44:57.221Z,12.30
2018-12-24T17:47:16.277Z,13.80
2018-12-24T17:49:28.665Z,14.13
2018-12-24T17:51:43.484Z,14.40
2018-12-24T17:53:58.517Z,11.97
2018-12-24T17:56:13.449Z,11.87
2018-12-24T17:58:28.644Z,12.10
2018-12-24T18:00:43.216Z,16.33
2018-12-24T18:02:58.121Z,15.40
2018-12-24T18:05:13.341Z,12.03
2018-12-24T18:07:27.862Z,12.80
2018-12-24T18:09:42.773Z,12.00
2018-12-24T18:11:57.724Z,14.33
2018-12-24T18:14:12.793Z,18.00
2018-12-24T18:16:27.564Z,13.67
2018-12-24T18:18:42.745Z,13.63
2018-12-24T18:20:57.437Z,11.73
2018-12-24T18:23:12.538Z,20.53
2018-12-24T18:25:27.151Z,12.73
2018-12-24T18:27:41.952Z,12.00
2018-12-24T18:29:56.924Z,16.57
2018-12-24T18:32:12.044Z,13.00
2018-12-24T18:34:26.988Z,11.40
2018-12-24T18:36:41.595Z,13.53
2018-12-24T18:38:56.436Z,9.20
2018-12-24T18:41:11.524Z,15.10
2018-12-24T18:43:26.172Z,10.10
2018-12-24T18:45:41.280Z,12.50
2018-12-24T18:47:56.155Z,15.90
2018-12-24T18:50:11.117Z,12.20
2018-12-24T18:52:25.952Z,12.77
2018-12-24T18:54:40.638Z,11.77
2018-12-24T18:56:55.560Z,14.70
2018-12-24T18:59:10.407Z,15.63
2018-12-24T19:01:25.409Z,12.63
2018-12-24T19:03:40.428Z,11.30
2018-12-24T19:05:55.325Z,13.70
2018-12-24T19:08:10.260Z,14.67
2018-12-24T19:10:25.137Z,13.47
2018-12-24T19:12:40.266Z,9.20
2018-12-24T19:14:54.948Z,10.10
2018-12-24T19:17:09.929Z,15.43
2018-12-24T19:19:25.060Z,12.17
2018-12-24T19:21:43.852Z,9.00
2018-12-24T19:23:56.849Z,11.10
2018-12-24T19:26:11.692Z,9.70
2018-12-24T19:28:26.670Z,18.37
2018-12-24T19:33:28.781Z,10.90
2018-12-24T19:35:43.560Z,13.10
2018-12-24T19:37:58.773Z,10.50
2018-12-24T19:40:13.569Z,9.63
2018-12-24T19:42:28.192Z,8.30
2018-12-24T19:44:43.077Z,14.20
2018-12-24T19:46:58.196Z,12.80
2018-12-24T19:49:12.765Z,17.27
2018-12-24T19:51:27.738Z,11.93
2018-12-24T19:53:42.716Z,9.60
2018-12-24T19:55:57.564Z,9.33
2018-12-24T19:58:12.494Z,9.87
2018-12-24T20:00:26.596Z,9.87
2018-12-24T20:02:41.453Z,11.47
2018-12-24T20:04:56.425Z,9.93
2018-12-24T20:07:11.192Z,10.13
2018-12-24T20:09:26.065Z,13.63
2018-12-24T20:11:40.853Z,11.53
2018-12-24T20:13:55.592Z,14.37
2018-12-24T20:16:10.349Z,8.57
2018-12-24T20:18:25.336Z,12.17
2018-12-24T20:20:40.096Z,9.13
2018-12-24T20:22:54.901Z,12.63
2018-12-24T20:25:09.748Z,11.57
2018-12-24T20:27:24.585Z,10.97
2018-12-24T20:29:39.308Z,9.73
2018-12-24T20:31:54.397Z,11.10
2018-12-24T20:34:09.429Z,31.43
2018-12-24T20:36:24.237Z,12.50
2018-12-24T20:38:39.172Z,8.90
2018-12-24T20:40:53.977Z,14.77
2018-12-24T20:43:08.793Z,9.30
2018-12-24T20:45:23.517Z,8.37
2018-12-24T20:47:38.721Z,10.97
2018-12-24T20:49:53.469Z,16.13
2018-12-24T20:52:08.460Z,11.27
2018-12-24T20:54:23.461Z,9.83
2018-12-24T20:56:38.296Z,10.50
2018-12-24T20:58:53.280Z,14.30
2018-12-24T21:01:08.116Z,12.03
2018-12-24T21:03:23.129Z,11.90
2018-12-24T21:05:37.960Z,11.73
2018-12-24T21:07:53.048Z,9.63
2018-12-24T21:10:08.129Z,8.93
2018-12-24T21:12:23.105Z,8.33
2018-12-24T21:14:38.149Z,10.97
2018-12-24T21:16:53.188Z,8.80
2018-12-24T21:24:28.287Z,14.17
2018-12-24T21:26:42.496Z,8.70
2018-12-24T21:28:57.552Z,8.77
2018-12-24T21:31:12.912Z,9.40
2018-12-24T21:33:27.525Z,8.97
2018-12-24T21:35:42.722Z,7.83
2018-12-24T21:37:57.424Z,6.50
2018-12-24T21:40:12.392Z,6.93
2018-12-24T21:42:27.301Z,11.50
2018-12-24T21:44:42.325Z,12.83
2018-12-24T21:46:56.453Z,9.27
2018-12-24T21:49:11.308Z,9.23
2018-12-24T21:51:26.367Z,7.67
2018-12-24T21:53:41.245Z,10.73
2018-12-24T21:55:56.136Z,10.53
2018-12-24T21:58:10.276Z,9.40
2018-12-24T22:00:25.206Z,10.53
2018-12-24T22:02:39.959Z,11.50
2018-12-24T22:04:54.773Z,7.77
2018-12-24T22:07:09.596Z,13.67
2018-12-24T22:14:44.902Z,11.83
2018-12-24T22:16:59.713Z,34.20
2018-12-24T22:19:14.741Z,8.30
2018-12-24T22:21:29.796Z,8.07
2018-12-24T22:23:44.568Z,8.27
2018-12-24T22:25:58.736Z,7.40
2018-12-24T22:28:13.700Z,7.30
2018-12-24T22:30:28.674Z,14.10
2018-12-24T22:32:43.580Z,10.77
2018-12-24T22:34:58.972Z,12.90
2018-12-24T22:37:13.489Z,11.93
2018-12-24T22:39:28.312Z,8.73
2018-12-24T22:41:43.269Z,15.70
2018-12-24T22:43:58.120Z,11.60
2018-12-24T22:46:12.304Z,9.50
2018-12-24T22:48:27.274Z,11.43
2018-12-24T22:50:42.148Z,6.87
2018-12-24T22:52:57.417Z,13.97
2018-12-24T22:55:12.153Z,9.03
2018-12-24T22:57:27.185Z,7.13
2018-12-24T22:59:42.072Z,6.00
2018-12-24T23:01:57.042Z,5.90
2018-12-24T23:04:11.654Z,5.90
2018-12-24T23:06:26.524Z,6.93
2018-12-24T23:08:41.386Z,9.57
2018-12-24T23:10:56.420Z,8.03
2018-12-24T23:13:11.012Z,8.37
2018-12-24T23:15:25.834Z,6.00
2018-12-24T23:17:40.657Z,10.40
2018-12-24T23:19:55.461Z,8.07
2018-12-24T23:22:11.140Z,5.87
2018-12-24T23:24:26.181Z,10.00
2018-12-24T23:26:41.264Z,4.80
2018-12-24T23:28:56.189Z,6.90
2018-12-24T23:31:11.167Z,3.63
2018-12-24T23:33:26.080Z,8.43
2018-12-24T23:35:41.016Z,9.30
2018-12-24T23:37:55.768Z,8.00
2018-12-24T23:40:10.756Z,7.53
2018-12-24T23:42:25.764Z,12.00
2018-12-24T23:44:40.948Z,5.80
2018-12-24T23:46:55.428Z,9.30
2018-12-24T23:49:10.373Z,8.27
2018-12-24T23:51:25.565Z,10.63
2018-12-24T23:53:40.552Z,11.03
2018-12-24T23:55:54.731Z,11.00
2018-12-24T23:58:09.760Z,6.50
